createdAt,value
2022-10-02T00:00:16.968Z,99218.53
2022-10-02T00:00:55.413Z,99198.41
2022-10-02T00:01:33.767Z,99189.16
2022-10-02T00:02:16.304Z,99158.66
2022-10-02T00:02:54.431Z,99144.66
2022-10-02T00:03:32.405Z,99137.31
2022-10-02T00:04:08.862Z,99116.75
2022-10-02T00:04:47.866Z,99112.28
2022-10-02T00:05:24.530Z,99096.50
2022-10-02T00:06:06.617Z,99086.13
2022-10-02T00:06:44.673Z,99075.41
2022-10-02T00:07:22.283Z,99075.56
2022-10-02T00:08:02.279Z,99069.53
2022-10-02T00:08:39.157Z,99067.63
2022-10-02T00:09:22.479Z,99068.88
2022-10-02T00:10:00.194Z,99063.44
2022-10-02T00:10:36.233Z,99067.78
2022-10-02T00:11:15.693Z,99062.81
2022-10-02T00:11:50.888Z,99060.09
2022-10-02T00:12:29.192Z,99050.84
2022-10-02T00:13:05.023Z,99054.03
2022-10-02T00:13:41.523Z,99043.66
2022-10-02T00:14:20.733Z,99053.88
2022-10-02T00:14:58.225Z,99047.31
2022-10-02T00:15:37.431Z,99047.81
2022-10-02T00:16:19.906Z,99044.28
2022-10-02T00:16:55.710Z,99048.59
2022-10-02T00:17:36.229Z,99036.63
2022-10-02T00:18:12.715Z,99044.44
2022-10-02T00:18:48.043Z,99048.75
2022-10-02T00:19:23.109Z,99054.66
2022-10-02T00:19:56.300Z,99051.94
2022-10-02T00:20:38.115Z,99048.44
2022-10-02T00:21:23.506Z,99052.56
2022-10-02T00:22:10.948Z,99051.31
2022-10-02T00:22:53.902Z,99046.19
2022-10-02T00:23:32.668Z,99048.47
2022-10-02T00:24:08.086Z,99042.22
2022-10-02T00:24:51.091Z,99040.31
2022-10-02T00:25:29.166Z,99036.31
2022-10-02T00:26:06.610Z,99033.59
2022-10-02T00:26:46.749Z,99021.97
2022-10-02T00:27:38.935Z,99027.22
2022-10-02T00:28:22.689Z,99026.44
2022-10-02T00:29:05.879Z,99016.69
2022-10-02T00:29:46.202Z,99012.41
2022-10-02T00:30:21.459Z,99003.47
2022-10-02T00:31:24.293Z,98995.66
2022-10-02T00:32:19.770Z,99002.19
2022-10-02T00:33:05.049Z,98996.78
2022-10-02T00:33:51.423Z,98992.16
2022-10-02T00:34:33.899Z,98991.03
2022-10-02T00:35:43.595Z,98984.34
2022-10-02T00:36:27.784Z,98981.16
2022-10-02T00:37:09.622Z,98987.06
2022-10-02T00:37:47.016Z,98986.41
2022-10-02T00:38:33.567Z,98973.31
2022-10-02T00:39:19.578Z,98986.09
2022-10-02T00:40:03.675Z,98995.00
2022-10-02T00:41:04.301Z,98992.63
2022-10-02T00:42:06.562Z,98989.78
2022-10-02T00:42:58.582Z,98990.88
2022-10-02T00:43:39.229Z,98985.47
2022-10-02T00:44:24.105Z,98976.22
2022-10-02T00:45:21.803Z,98985.91
2022-10-02T00:46:31.608Z,98973.69
2022-10-02T00:47:15.846Z,98976.03
2022-10-02T00:47:54.939Z,98971.41
2022-10-02T00:48:47.308Z,98959.78
2022-10-02T00:49:35.907Z,98967.09
2022-10-02T00:50:24.514Z,98960.13
2022-10-02T00:51:09.701Z,98955.81
2022-10-02T00:51:52.841Z,98961.69
2022-10-02T00:52:44.095Z,98959.78
2022-10-02T00:53:29.786Z,98956.25
2022-10-02T00:54:18.323Z,98957.06
2022-10-02T00:55:16.314Z,98950.06
2022-10-02T00:56:11.858Z,98956.25
2022-10-02T00:56:53.244Z,98952.44
2022-10-02T00:57:41.854Z,98959.47
2022-10-02T00:58:31.550Z,98959.47
2022-10-02T00:59:38.628Z,98955.16
2022-10-02T01:00:13.734Z,98950.06
2022-10-02T01:00:55.185Z,98947.00
2022-10-02T01:01:38.020Z,98954.84
2022-10-02T01:02:14.145Z,98950.53
2022-10-02T01:03:09.074Z,98949.72
2022-10-02T01:03:45.030Z,98954.69
2022-10-02T01:04:25.267Z,98957.06
2022-10-02T01:04:58.883Z,98948.47
2022-10-02T01:05:33.873Z,98948.13
2022-10-02T01:06:06.681Z,98948.94
2022-10-02T01:06:38.978Z,98944.31
2022-10-02T01:07:15.795Z,98944.31
2022-10-02T01:07:51.612Z,98946.22
2022-10-02T01:08:23.682Z,98946.56
2022-10-02T01:08:58.785Z,98940.00
2022-10-02T01:09:31.549Z,98938.44
2022-10-02T01:10:07.637Z,98939.22
2022-10-02T01:10:42.830Z,98944.97
2022-10-02T01:11:14.951Z,98941.44
2022-10-02T01:11:47.019Z,98943.03
2022-10-02T01:12:21.681Z,98945.75
2022-10-02T01:12:55.266Z,98940.34
2022-10-02T01:13:27.566Z,98938.75
2022-10-02T01:14:02.251Z,98936.03
2022-10-02T01:14:35.789Z,98934.78
2022-10-02T01:15:12.482Z,98940.97
2022-10-02T01:15:52.983Z,98935.09
2022-10-02T01:16:25.217Z,98934.59
2022-10-02T01:16:57.440Z,98929.19
2022-10-02T01:17:35.996Z,98939.72
2022-10-02T01:18:10.313Z,98926.47
2022-10-02T01:18:48.179Z,98931.88
2022-10-02T01:19:29.281Z,98928.72
2022-10-02T01:20:04.984Z,98927.91
2022-10-02T01:20:42.388Z,98926.81
2022-10-02T01:21:21.693Z,98923.28
2022-10-02T01:21:59.292Z,98924.09
2022-10-02T01:22:40.777Z,98917.88
2022-10-02T01:23:20.610Z,98925.22
2022-10-02T01:24:03.350Z,98915.47
2022-10-02T01:24:46.660Z,98915.47
2022-10-02T01:25:18.778Z,98913.88
2022-10-02T01:25:53.982Z,98911.97
2022-10-02T01:26:26.130Z,98910.06
2022-10-02T01:26:58.794Z,98915.16
2022-10-02T01:27:35.450Z,98908.63
2022-10-02T01:28:14.007Z,98907.84
2022-10-02T01:28:46.315Z,98908.94
2022-10-02T01:29:18.415Z,98905.13
2022-10-02T01:29:57.330Z,98904.31
2022-10-02T01:30:31.618Z,98901.13
2022-10-02T01:31:11.189Z,98905.44
2022-10-02T01:31:43.591Z,98901.47
2022-10-02T01:32:17.062Z,98900.66
2022-10-02T01:32:54.692Z,98907.19
2022-10-02T01:33:26.838Z,98899.88
2022-10-02T01:34:00.030Z,98902.56
2022-10-02T01:34:34.995Z,98898.28
2022-10-02T01:35:08.346Z,98888.22
2022-10-02T01:35:40.751Z,98893.66
2022-10-02T01:36:17.831Z,98888.53
2022-10-02T01:36:50.084Z,98892.03
2022-10-02T01:37:24.613Z,98893.66
2022-10-02T01:37:59.341Z,98888.88
2022-10-02T01:38:31.798Z,98888.53
2022-10-02T01:39:04.199Z,98885.50
2022-10-02T01:39:39.898Z,98879.59
2022-10-02T01:40:24.919Z,98876.75
2022-10-02T01:40:59.795Z,98870.88
2022-10-02T01:41:35.359Z,98877.09
2022-10-02T01:42:07.503Z,98872.78
2022-10-02T01:42:43.014Z,98863.84
2022-10-02T01:43:19.459Z,98870.88
2022-10-02T01:43:58.446Z,98857.31
2022-10-02T01:44:30.919Z,98866.56
2022-10-02T01:45:04.951Z,98866.56
2022-10-02T01:45:56.693Z,98861.00
2022-10-02T01:46:33.187Z,98859.41
2022-10-02T01:47:11.775Z,98856.69
2022-10-02T01:47:52.009Z,98850.47
2022-10-02T01:48:38.748Z,98855.91
2022-10-02T01:49:34.710Z,98848.44
2022-10-02T01:50:17.714Z,98848.75
2022-10-02T01:51:04.070Z,98851.72
2022-10-02T01:51:56.995Z,98857.81
2022-10-02T01:52:43.487Z,98851.13
2022-10-02T01:53:26.749Z,98847.63
2022-10-02T01:54:10.642Z,98847.13
2022-10-02T01:54:57.901Z,98841.72
2022-10-02T01:55:43.513Z,98844.44
2022-10-02T01:56:21.960Z,98844.91
2022-10-02T01:57:08.602Z,98838.38
2022-10-02T01:57:52.995Z,98845.38
2022-10-02T01:58:36.422Z,98839.94
2022-10-02T01:59:20.617Z,98843.47
2022-10-02T02:00:06.014Z,98840.75
2022-10-02T02:01:00.460Z,98834.06
2022-10-02T02:01:44.185Z,98831.69
2022-10-02T02:02:29.142Z,98827.06
2022-10-02T02:03:13.492Z,98832.78
2022-10-02T02:03:53.653Z,98824.66
2022-10-02T02:04:32.404Z,98828.50
2022-10-02T02:05:10.485Z,98827.72
2022-10-02T02:05:48.143Z,98827.72
2022-10-02T02:06:32.816Z,98830.44
2022-10-02T02:07:14.381Z,98828.81
2022-10-02T02:07:51.144Z,98828.50
2022-10-02T02:08:32.670Z,98832.00
2022-10-02T02:09:09.919Z,98831.22
2022-10-02T02:09:49.180Z,98833.59
2022-10-02T02:10:26.247Z,98829.28
2022-10-02T02:11:10.493Z,98827.72
2022-10-02T02:11:55.396Z,98826.13
2022-10-02T02:12:37.886Z,98832.66
2022-10-02T02:13:16.425Z,98832.97
2022-10-02T02:13:53.877Z,98822.13
2022-10-02T02:14:30.284Z,98822.91
2022-10-02T02:15:07.563Z,98824.53
2022-10-02T02:15:49.238Z,98817.50
2022-10-02T02:16:27.005Z,98821.00
2022-10-02T02:17:11.513Z,98817.84
2022-10-02T02:17:50.961Z,98812.44
2022-10-02T02:18:29.202Z,98813.53
2022-10-02T02:19:08.196Z,98812.44
2022-10-02T02:19:45.612Z,98807.81
2022-10-02T02:20:21.019Z,98807.81
2022-10-02T02:21:01.760Z,98807.81
2022-10-02T02:21:36.449Z,98803.50
2022-10-02T02:22:16.775Z,98796.97
2022-10-02T02:22:50.018Z,98793.50
2022-10-02T02:23:26.826Z,98804.78
2022-10-02T02:24:06.555Z,98797.44
2022-10-02T02:24:42.852Z,98784.22
2022-10-02T02:25:18.814Z,98785.03
2022-10-02T02:25:57.153Z,98774.97
2022-10-02T02:26:33.548Z,98778.50
2022-10-02T02:27:07.869Z,98773.06
2022-10-02T02:27:46.023Z,98775.91
2022-10-02T02:28:21.730Z,98774.00
2022-10-02T02:29:00.512Z,98776.72
2022-10-02T02:29:38.721Z,98766.19
2022-10-02T02:30:13.602Z,98774.31
2022-10-02T02:30:49.657Z,98769.38
2022-10-02T02:31:27.340Z,98767.78
2022-10-02T02:32:03.152Z,98767.00
2022-10-02T02:32:39.262Z,98758.06
2022-10-02T02:33:19.204Z,98760.47
2022-10-02T02:33:56.401Z,98760.00
2022-10-02T02:34:31.991Z,98748.81
2022-10-02T02:35:11.664Z,98750.44
2022-10-02T02:35:47.963Z,98756.16
2022-10-02T02:36:26.273Z,98756.97
2022-10-02T02:37:07.584Z,98748.81
2022-10-02T02:37:42.880Z,98748.03
2022-10-02T02:38:21.775Z,98747.41
2022-10-02T02:39:03.581Z,98742.78
2022-10-02T02:39:42.534Z,98735.75
2022-10-02T02:40:17.360Z,98740.06
2022-10-02T02:40:53.430Z,98737.38
2022-10-02T02:41:28.480Z,98728.09
2022-10-02T02:42:07.010Z,98724.28
2022-10-02T02:42:44.948Z,98726.19
2022-10-02T02:43:21.892Z,98721.88
2022-10-02T02:43:59.116Z,98718.84
2022-10-02T02:44:39.178Z,98720.44
2022-10-02T02:45:14.843Z,98720.75
2022-10-02T02:45:52.103Z,98715.03
2022-10-02T02:46:35.136Z,98710.06
2022-10-02T02:47:12.932Z,98711.53
2022-10-02T02:47:50.970Z,98711.22
2022-10-02T02:48:29.371Z,98708.50
2022-10-02T02:49:09.783Z,98710.41
2022-10-02T02:49:47.633Z,98705.47
2022-10-02T02:50:28.107Z,98707.09
2022-10-02T02:51:08.542Z,98706.75
2022-10-02T02:51:43.117Z,98702.63
2022-10-02T02:52:22.861Z,98703.88
2022-10-02T02:53:00.782Z,98706.28
2022-10-02T02:53:38.836Z,98701.34
2022-10-02T02:54:18.189Z,98703.72
2022-10-02T02:54:54.637Z,98697.50
2022-10-02T02:55:35.141Z,98701.78
2022-10-02T02:56:13.518Z,98692.88
2022-10-02T02:56:47.261Z,98699.44
2022-10-02T02:57:31.443Z,98694.47
2022-10-02T02:58:09.835Z,98694.47
2022-10-02T02:58:47.532Z,98693.34
2022-10-02T02:59:24.910Z,98693.03
2022-10-02T03:00:01.370Z,98693.81
2022-10-02T03:00:36.686Z,98686.16
2022-10-02T03:01:09.013Z,98685.03
2022-10-02T03:01:42.089Z,98684.25
2022-10-02T03:02:16.833Z,98687.75
2022-10-02T03:02:50.747Z,98689.34
2022-10-02T03:03:22.918Z,98688.22
2022-10-02T03:03:57.748Z,98685.19
2022-10-02T03:04:29.867Z,98680.56
2022-10-02T03:05:02.076Z,98681.00
2022-10-02T03:05:38.908Z,98684.22
2022-10-02T03:06:31.692Z,98688.38
2022-10-02T03:07:05.356Z,98687.09
2022-10-02T03:07:40.101Z,98676.72
2022-10-02T03:08:18.852Z,98678.28
2022-10-02T03:08:52.771Z,98675.59
2022-10-02T03:09:30.127Z,98678.00
2022-10-02T03:10:16.178Z,98686.94
2022-10-02T03:11:01.320Z,98677.69
2022-10-02T03:11:53.116Z,98688.06
2022-10-02T03:12:41.571Z,98685.66
2022-10-02T03:13:30.826Z,98683.72
2022-10-02T03:14:12.781Z,98681.00
2022-10-02T03:15:11.994Z,98681.34
2022-10-02T03:15:55.648Z,98673.22
2022-10-02T03:16:39.818Z,98674.81
2022-10-02T03:17:24.811Z,98669.41
2022-10-02T03:18:17.427Z,98666.69
2022-10-02T03:19:05.275Z,98668.13
2022-10-02T03:19:46.576Z,98662.69
2022-10-02T03:20:31.694Z,98664.28
2022-10-02T03:21:12.552Z,98658.88
2022-10-02T03:21:57.994Z,98663.19
2022-10-02T03:22:43.200Z,98662.84
2022-10-02T03:23:23.065Z,98659.31
2022-10-02T03:24:01.840Z,98663.66
2022-10-02T03:24:44.088Z,98657.13
2022-10-02T03:25:22.121Z,98659.53
2022-10-02T03:26:00.522Z,98666.06
2022-10-02T03:26:41.199Z,98654.91
2022-10-02T03:27:19.442Z,98661.44
2022-10-02T03:28:01.095Z,98664.16
2022-10-02T03:28:56.732Z,98666.06
2022-10-02T03:29:35.385Z,98660.47
2022-10-02T03:30:12.720Z,98660.13
2022-10-02T03:30:46.852Z,98651.38
2022-10-02T03:31:21.026Z,98647.53
2022-10-02T03:31:57.459Z,98649.94
2022-10-02T03:32:32.270Z,98646.41
2022-10-02T03:33:06.076Z,98638.28
2022-10-02T03:33:41.497Z,98640.69
2022-10-02T03:34:14.081Z,98637.63
2022-10-02T03:34:48.110Z,98630.28
2022-10-02T03:35:24.578Z,98631.88
2022-10-02T03:35:57.125Z,98632.69
2022-10-02T03:36:32.751Z,98630.78
2022-10-02T03:37:05.378Z,98627.75
2022-10-02T03:37:39.437Z,98639.34
2022-10-02T03:38:16.343Z,98629.66
2022-10-02T03:38:57.022Z,98641.28
2022-10-02T03:39:40.874Z,98638.78
2022-10-02T03:40:15.885Z,98635.25
2022-10-02T03:40:48.074Z,98647.22
2022-10-02T03:41:20.161Z,98650.72
2022-10-02T03:41:54.890Z,98651.53
2022-10-02T03:42:29.517Z,98646.09
2022-10-02T03:43:07.302Z,98657.38
2022-10-02T03:43:39.398Z,98653.88
2022-10-02T03:44:11.490Z,98660.09
2022-10-02T03:44:46.657Z,98654.38
2022-10-02T03:45:39.021Z,98646.56
2022-10-02T03:46:14.246Z,98653.75
2022-10-02T03:46:46.430Z,98643.72
2022-10-02T03:47:18.587Z,98646.41
2022-10-02T03:47:53.257Z,98645.00
2022-10-02T03:48:25.403Z,98655.81
2022-10-02T03:48:57.553Z,98647.69
2022-10-02T03:49:32.298Z,98642.72
2022-10-02T03:50:05.187Z,98650.84
2022-10-02T03:50:37.522Z,98658.97
2022-10-02T03:51:12.172Z,98651.66
2022-10-02T03:51:44.432Z,98659.47
2022-10-02T03:52:21.463Z,98656.75
2022-10-02T03:52:53.765Z,98658.66
2022-10-02T03:53:31.002Z,98656.41
2022-10-02T03:54:06.302Z,98662.63
2022-10-02T03:54:38.665Z,98666.13
2022-10-02T03:55:25.062Z,98672.66
2022-10-02T03:56:06.273Z,98671.41
2022-10-02T03:56:43.099Z,98670.94
2022-10-02T03:57:20.162Z,98669.03
2022-10-02T03:57:56.567Z,98665.53
2022-10-02T03:58:33.224Z,98665.53
2022-10-02T03:59:12.613Z,98668.03
2022-10-02T03:59:53.810Z,98651.97
2022-10-02T04:00:32.267Z,98650.84
2022-10-02T04:01:10.951Z,98654.03
2022-10-02T04:01:51.443Z,98644.31
2022-10-02T04:02:32.030Z,98642.41
2022-10-02T04:03:10.777Z,98635.38
2022-10-02T04:03:50.041Z,98640.81
2022-10-02T04:04:25.624Z,98645.13
2022-10-02T04:05:07.259Z,98640.50
2022-10-02T04:05:43.674Z,98640.81
2022-10-02T04:06:23.671Z,98634.59
2022-10-02T04:07:01.731Z,98633.78
2022-10-02T04:07:38.699Z,98634.59
2022-10-02T04:08:19.442Z,98629.97
2022-10-02T04:08:58.406Z,98626.00
2022-10-02T04:09:37.542Z,98623.31
2022-10-02T04:10:29.822Z,98626.66
2022-10-02T04:11:11.157Z,98620.78
2022-10-02T04:11:48.448Z,98621.09
2022-10-02T04:12:27.267Z,98628.91
2022-10-02T04:13:10.283Z,98623.50
2022-10-02T04:13:49.099Z,98618.41
2022-10-02T04:14:28.513Z,98615.69
2022-10-02T04:15:06.961Z,98608.63
2022-10-02T04:15:53.922Z,98608.63
2022-10-02T04:16:34.582Z,98612.50
2022-10-02T04:17:13.690Z,98612.50
2022-10-02T04:17:50.046Z,98615.53
2022-10-02T04:18:30.737Z,98620.16
2022-10-02T04:19:07.631Z,98621.25
2022-10-02T04:19:42.966Z,98618.91
2022-10-02T04:20:21.311Z,98621.59
2022-10-02T04:20:58.530Z,98609.63
2022-10-02T04:21:38.748Z,98613.47
2022-10-02T04:22:21.323Z,98602.66
2022-10-02T04:22:56.636Z,98604.22
2022-10-02T04:23:34.469Z,98603.09
2022-10-02T04:24:18.893Z,98596.44
2022-10-02T04:24:57.620Z,98607.25
2022-10-02T04:25:37.262Z,98598.34
2022-10-02T04:26:17.776Z,98599.13
2022-10-02T04:27:05.334Z,98609.97
2022-10-02T04:27:40.872Z,98604.56
2022-10-02T04:28:15.466Z,98596.56
2022-10-02T04:28:59.805Z,98589.22
2022-10-02T04:29:38.830Z,98590.03
2022-10-02T04:30:13.067Z,98576.47
2022-10-02T04:30:47.750Z,98583.44
2022-10-02T04:31:19.984Z,98574.25
2022-10-02T04:32:01.256Z,98573.13
2022-10-02T04:32:37.923Z,98579.66
2022-10-02T04:33:12.842Z,98575.31
2022-10-02T04:33:44.951Z,98586.66
2022-10-02T04:34:19.606Z,98575.84
2022-10-02T04:34:52.358Z,98580.13
2022-10-02T04:35:32.541Z,98583.63
2022-10-02T04:36:15.662Z,98573.13
2022-10-02T04:37:04.252Z,98572.63
2022-10-02T04:38:02.507Z,98575.69
2022-10-02T04:38:49.269Z,98571.25
2022-10-02T04:39:50.677Z,98579.69
2022-10-02T04:40:34.070Z,98576.97
2022-10-02T04:41:22.824Z,98578.91
2022-10-02T04:42:24.999Z,98566.00
2022-10-02T04:43:13.257Z,98569.03
2022-10-02T04:44:02.346Z,98569.84
2022-10-02T04:44:57.192Z,98572.22
2022-10-02T04:45:41.846Z,98568.41
2022-10-02T04:46:25.854Z,98555.63
2022-10-02T04:47:15.803Z,98558.00
2022-10-02T04:48:16.013Z,98561.84
2022-10-02T04:49:23.299Z,98550.56
2022-10-02T04:50:08.746Z,98552.59
2022-10-02T04:50:48.597Z,98546.84
2022-10-02T04:51:37.233Z,98554.31
2022-10-02T04:52:27.195Z,98556.56
2022-10-02T04:53:21.985Z,98549.56
2022-10-02T04:54:15.565Z,98547.66
2022-10-02T04:55:04.725Z,98541.56
2022-10-02T04:56:14.680Z,98526.78
2022-10-02T04:57:05.460Z,98521.00
2022-10-02T04:57:56.539Z,98521.47
2022-10-02T04:58:48.441Z,98516.50
2022-10-02T04:59:36.038Z,98510.00
2022-10-02T05:00:14.662Z,98505.06
2022-10-02T05:00:54.978Z,98508.22
2022-10-02T05:01:31.874Z,98500.25
2022-10-02T05:02:22.932Z,98500.44
2022-10-02T05:03:17.282Z,98503.16
2022-10-02T05:04:09.016Z,98498.97
2022-10-02T05:05:00.730Z,98501.66
2022-10-02T05:05:51.501Z,98506.78
2022-10-02T05:06:41.999Z,98502.91
2022-10-02T05:07:33.033Z,98507.75
2022-10-02T05:08:24.928Z,98512.84
2022-10-02T05:09:14.816Z,98504.38
2022-10-02T05:10:01.924Z,98505.97
2022-10-02T05:10:56.717Z,98505.19
2022-10-02T05:11:50.262Z,98498.97
2022-10-02T05:12:46.721Z,98491.16
2022-10-02T05:13:34.929Z,98491.63
2022-10-02T05:14:26.460Z,98484.28
2022-10-02T05:15:16.927Z,98481.22
2022-10-02T05:16:04.374Z,98482.81
2022-10-02T05:16:56.333Z,98484.41
2022-10-02T05:17:47.660Z,98480.59
2022-10-02T05:18:37.316Z,98473.56
2022-10-02T05:19:26.144Z,98472.78
2022-10-02T05:20:19.098Z,98469.75
2022-10-02T05:21:15.437Z,98471.97
2022-10-02T05:22:22.347Z,98466.13
2022-10-02T05:23:22.750Z,98467.25
2022-10-02T05:24:09.706Z,98468.34
2022-10-02T05:24:57.156Z,98465.66
2022-10-02T05:26:06.540Z,98470.28
2022-10-02T05:27:06.402Z,98463.25
2022-10-02T05:27:56.740Z,98460.22
2022-10-02T05:28:59.914Z,98464.84
2022-10-02T05:29:55.931Z,98456.41
2022-10-02T05:30:35.904Z,98456.41
2022-10-02T05:31:20.854Z,98454.13
2022-10-02T05:32:05.974Z,98453.81
2022-10-02T05:33:02.123Z,98450.31
2022-10-02T05:33:51.834Z,98449.50
2022-10-02T05:34:40.914Z,98456.53
2022-10-02T05:35:28.672Z,98458.91
2022-10-02T05:36:24.792Z,98464.66
2022-10-02T05:37:10.471Z,98472.31
2022-10-02T05:37:56.476Z,98483.50
2022-10-02T05:38:47.327Z,98480.31
2022-10-02T05:39:28.593Z,98484.16
2022-10-02T05:40:08.381Z,98490.03
2022-10-02T05:40:49.061Z,98493.88
2022-10-02T05:41:27.826Z,98495.78
2022-10-02T05:42:08.947Z,98496.44
2022-10-02T05:42:49.585Z,98506.03
2022-10-02T05:43:33.350Z,98508.25
2022-10-02T05:44:12.683Z,98504.16
2022-10-02T05:44:53.502Z,98504.50
2022-10-02T05:45:31.335Z,98499.72
2022-10-02T05:46:11.184Z,98504.69
2022-10-02T05:46:49.429Z,98497.69
2022-10-02T05:47:28.277Z,98494.53
2022-10-02T05:48:09.150Z,98484.81
2022-10-02T05:48:45.173Z,98479.41
2022-10-02T05:49:20.796Z,98473.19
2022-10-02T05:50:01.692Z,98468.22
2022-10-02T05:50:37.015Z,98463.94
2022-10-02T05:51:16.668Z,98449.25
2022-10-02T05:51:59.665Z,98453.09
2022-10-02T05:52:38.321Z,98453.09
2022-10-02T05:53:26.123Z,98452.31
2022-10-02T05:54:04.863Z,98456.13
2022-10-02T05:54:45.542Z,98457.72
2022-10-02T05:55:26.449Z,98453.75
2022-10-02T05:56:02.556Z,98460.75
2022-10-02T05:56:42.786Z,98458.03
2022-10-02T05:57:22.203Z,98454.09
2022-10-02T05:58:04.297Z,98445.16
2022-10-02T05:58:42.364Z,98440.06
2022-10-02T05:59:22.935Z,98447.41
2022-10-02T06:00:07.597Z,98441.53
2022-10-02T06:00:52.170Z,98444.13
2022-10-02T06:01:30.675Z,98441.41
2022-10-02T06:02:14.492Z,98436.75
2022-10-02T06:02:57.278Z,98446.84
2022-10-02T06:03:38.884Z,98439.03
2022-10-02T06:04:15.230Z,98441.75
2022-10-02T06:04:57.383Z,98437.13
2022-10-02T06:05:44.218Z,98437.44
2022-10-02T06:06:18.624Z,98439.69
2022-10-02T06:06:56.110Z,98435.06
2022-10-02T06:07:29.490Z,98431.91
2022-10-02T06:08:04.374Z,98433.81
2022-10-02T06:08:44.494Z,98430.00
2022-10-02T06:09:20.394Z,98428.72
2022-10-02T06:09:59.428Z,98431.44
2022-10-02T06:10:38.800Z,98428.59
2022-10-02T06:11:17.961Z,98434.69
2022-10-02T06:11:55.511Z,98432.75
2022-10-02T06:12:36.550Z,98430.38
2022-10-02T06:13:13.879Z,98425.75
2022-10-02T06:13:53.559Z,98424.16
2022-10-02T06:14:32.432Z,98423.72
2022-10-02T06:15:08.567Z,98428.34
2022-10-02T06:15:49.489Z,98422.94
2022-10-02T06:16:27.381Z,98429.47
2022-10-02T06:17:08.389Z,98424.38
2022-10-02T06:17:47.986Z,98425.50
2022-10-02T06:18:25.505Z,98423.91
2022-10-02T06:19:03.206Z,98426.28
2022-10-02T06:19:43.523Z,98418.16
2022-10-02T06:20:19.835Z,98415.19
2022-10-02T06:20:58.652Z,98414.41
2022-10-02T06:21:36.414Z,98410.56
2022-10-02T06:22:16.665Z,98410.56
2022-10-02T06:22:54.092Z,98415.19
2022-10-02T06:23:31.921Z,98406.41
2022-10-02T06:24:13.890Z,98408.31
2022-10-02T06:24:51.687Z,98409.09
2022-10-02T06:25:33.260Z,98403.69
2022-10-02T06:26:10.785Z,98400.66
2022-10-02T06:26:51.379Z,98407.31
2022-10-02T06:27:31.888Z,98408.13
2022-10-02T06:28:17.090Z,98412.41
2022-10-02T06:28:52.228Z,98407.78
2022-10-02T06:29:31.574Z,98404.41
2022-10-02T06:30:06.281Z,98407.91
2022-10-02T06:30:42.860Z,98411.56
2022-10-02T06:31:24.292Z,98411.22
2022-10-02T06:32:12.662Z,98412.03
2022-10-02T06:32:54.513Z,98417.44
2022-10-02T06:33:30.942Z,98412.81
2022-10-02T06:34:03.219Z,98409.75
2022-10-02T06:34:38.118Z,98405.94
2022-10-02T06:35:13.681Z,98407.84
2022-10-02T06:36:16.823Z,98407.06
2022-10-02T06:37:08.346Z,98399.59
2022-10-02T06:37:56.782Z,98392.47
2022-10-02T06:38:39.539Z,98402.50
2022-10-02T06:39:35.441Z,98394.72
2022-10-02T06:40:33.889Z,98398.56
2022-10-02T06:41:20.570Z,98401.25
2022-10-02T06:42:07.625Z,98392.47
2022-10-02T06:42:51.026Z,98404.09
2022-10-02T06:44:01.605Z,98400.47
2022-10-02T06:44:40.753Z,98392.34
2022-10-02T06:45:23.486Z,98390.88
2022-10-02T06:46:08.405Z,98394.84
2022-10-02T06:46:52.477Z,98398.00
2022-10-02T06:47:42.901Z,98394.97
2022-10-02T06:48:24.925Z,98393.88
2022-10-02T06:49:04.931Z,98391.28
2022-10-02T06:49:47.315Z,98380.13
2022-10-02T06:50:35.593Z,98375.16
2022-10-02T06:51:18.627Z,98373.72
2022-10-02T06:52:02.033Z,98377.66
2022-10-02T06:52:45.568Z,98384.66
2022-10-02T06:53:45.334Z,98380.47
2022-10-02T06:54:34.662Z,98384.66
2022-10-02T06:55:31.231Z,98386.25
2022-10-02T06:56:25.915Z,98385.91
2022-10-02T06:57:14.203Z,98380.16
2022-10-02T06:58:05.025Z,98381.28
2022-10-02T06:58:53.202Z,98384.78
2022-10-02T06:59:41.038Z,98387.81
2022-10-02T07:00:19.526Z,98385.78
2022-10-02T07:00:59.364Z,98379.91
2022-10-02T07:01:46.980Z,98381.38
2022-10-02T07:02:42.869Z,98375.03
2022-10-02T07:03:37.835Z,98372.66
2022-10-02T07:04:56.999Z,98383.34
2022-10-02T07:05:53.432Z,98366.00
2022-10-02T07:06:55.095Z,98367.09
2022-10-02T07:07:40.335Z,98362.94
2022-10-02T07:08:27.854Z,98364.53
2022-10-02T07:09:35.037Z,98361.81
2022-10-02T07:10:33.022Z,98365.31
2022-10-02T07:11:16.043Z,98357.31
2022-10-02T07:11:56.886Z,98362.88
2022-10-02T07:12:56.823Z,98359.03
2022-10-02T07:13:45.233Z,98359.22
2022-10-02T07:14:33.528Z,98355.75
2022-10-02T07:15:23.857Z,98359.56
2022-10-02T07:16:19.700Z,98357.50
2022-10-02T07:17:06.978Z,98354.81
2022-10-02T07:17:57.421Z,98352.91
2022-10-02T07:18:42.801Z,98352.44
2022-10-02T07:19:40.949Z,98348.16
2022-10-02T07:20:34.247Z,98348.47
2022-10-02T07:21:17.612Z,98347.03
2022-10-02T07:22:00.103Z,98349.88
2022-10-02T07:22:45.717Z,98351.09
2022-10-02T07:23:45.972Z,98349.66
2022-10-02T07:24:31.218Z,98346.94
2022-10-02T07:25:23.302Z,98352.38
2022-10-02T07:26:10.667Z,98345.03
2022-10-02T07:26:49.701Z,98338.50
2022-10-02T07:27:29.965Z,98343.91
2022-10-02T07:28:11.415Z,98345.84
2022-10-02T07:28:50.841Z,98348.06
2022-10-02T07:29:36.084Z,98341.06
2022-10-02T07:30:11.971Z,98348.41
2022-10-02T07:30:54.222Z,98339.50
2022-10-02T07:31:41.841Z,98346.84
2022-10-02T07:32:39.126Z,98341.75
2022-10-02T07:33:30.090Z,98338.56
2022-10-02T07:34:13.221Z,98340.81
2022-10-02T07:34:56.222Z,98340.50
2022-10-02T07:35:44.000Z,98342.75
2022-10-02T07:36:29.484Z,98347.34
2022-10-02T07:37:14.850Z,98346.91
2022-10-02T07:38:01.735Z,98347.25
2022-10-02T07:38:49.846Z,98346.00
2022-10-02T07:39:35.935Z,98341.69
2022-10-02T07:40:24.651Z,98343.28
2022-10-02T07:41:17.023Z,98337.88
2022-10-02T07:42:12.199Z,98343.63
2022-10-02T07:43:10.243Z,98348.22
2022-10-02T07:43:50.633Z,98343.28
2022-10-02T07:44:33.006Z,98344.28
2022-10-02T07:45:27.041Z,98342.81
2022-10-02T07:46:16.205Z,98341.69
2022-10-02T07:46:57.643Z,98342.16
2022-10-02T07:47:46.412Z,98339.91
2022-10-02T07:48:35.193Z,98336.09
2022-10-02T07:49:20.653Z,98339.13
2022-10-02T07:49:59.826Z,98341.50
2022-10-02T07:50:42.668Z,98338.44
2022-10-02T07:51:45.144Z,98336.84
2022-10-02T07:52:27.958Z,98338.78
2022-10-02T07:53:08.474Z,98327.59
2022-10-02T07:53:49.857Z,98340.81
2022-10-02T07:54:50.698Z,98336.53
2022-10-02T07:55:24.042Z,98334.63
2022-10-02T07:55:57.209Z,98333.94
2022-10-02T07:56:33.489Z,98337.91
2022-10-02T07:57:23.930Z,98337.91
2022-10-02T07:58:06.026Z,98340.63
2022-10-02T07:58:43.298Z,98339.81
2022-10-02T07:59:17.714Z,98339.50
2022-10-02T07:59:57.748Z,98335.66
2022-10-02T08:00:34.486Z,98336.78
2022-10-02T08:01:15.408Z,98336.00
2022-10-02T08:01:50.483Z,98337.44
2022-10-02T08:02:30.370Z,98340.16
2022-10-02T08:03:10.764Z,98337.78
2022-10-02T08:03:49.759Z,98330.06
2022-10-02T08:04:36.818Z,98334.69
2022-10-02T08:05:18.630Z,98332.66
2022-10-02T08:05:56.409Z,98331.88
2022-10-02T08:06:29.098Z,98335.81
2022-10-02T08:07:03.010Z,98324.06
2022-10-02T08:07:37.934Z,98322.94
2022-10-02T08:08:18.483Z,98326.78
2022-10-02T08:08:57.921Z,98329.81
2022-10-02T08:09:35.419Z,98327.78
2022-10-02T08:10:16.500Z,98324.63
2022-10-02T08:10:53.812Z,98317.75
2022-10-02T08:11:30.855Z,98315.81
2022-10-02T08:12:14.654Z,98315.81